sensor_id;sensor_type;location;lat;lon;timestamp;temperature;humidity
70807;DHT22;58882;52.170;5.386;2023-11-19T00:00:08;17.60;63.80
70807;DHT22;58882;52.170;5.386;2023-11-19T00:02:40;17.60;63.80
70807;DHT22;58882;52.170;5.386;2023-11-19T00:05:08;17.60;63.90
70807;DHT22;58882;52.170;5.386;2023-11-19T00:07:36;17.60;63.90
70807;DHT22;58882;52.170;5.386;2023-11-19T00:10:04;17.60;63.90
70807;DHT22;58882;52.170;5.386;2023-11-19T00:12:33;17.60;64.00
70807;DHT22;58882;52.170;5.386;2023-11-19T00:15:00;17.60;63.90
70807;DHT22;58882;52.170;5.386;2023-11-19T00:17:28;17.60;64.00
70807;DHT22;58882;52.170;5.386;2023-11-19T00:19:55;17.60;64.80
70807;DHT22;58882;52.170;5.386;2023-11-19T00:22:21;17.60;63.90
70807;DHT22;58882;52.170;5.386;2023-11-19T00:24:49;17.60;63.90
70807;DHT22;58882;52.170;5.386;2023-11-19T00:27:16;17.60;63.90
70807;DHT22;58882;52.170;5.386;2023-11-19T00:29:44;17.60;63.90
70807;DHT22;58882;52.170;5.386;2023-11-19T00:32:11;17.60;64.00
70807;DHT22;58882;52.170;5.386;2023-11-19T00:34:39;17.60;64.00
70807;DHT22;58882;52.170;5.386;2023-11-19T00:37:05;17.60;63.90
70807;DHT22;58882;52.170;5.386;2023-11-19T00:39:33;17.60;63.90
70807;DHT22;58882;52.170;5.386;2023-11-19T00:42:00;17.60;63.90
70807;DHT22;58882;52.170;5.386;2023-11-19T00:44:27;17.60;63.90
70807;DHT22;58882;52.170;5.386;2023-11-19T00:46:54;17.70;63.90
70807;DHT22;58882;52.170;5.386;2023-11-19T00:49:21;17.70;63.90
70807;DHT22;58882;52.170;5.386;2023-11-19T00:51:48;17.70;64.00
70807;DHT22;58882;52.170;5.386;2023-11-19T00:54:16;17.70;64.90
70807;DHT22;58882;52.170;5.386;2023-11-19T00:56:43;17.70;64.00
70807;DHT22;58882;52.170;5.386;2023-11-19T00:59:11;17.70;64.10
70807;DHT22;58882;52.170;5.386;2023-11-19T01:01:38;17.60;64.00
70807;DHT22;58882;52.170;5.386;2023-11-19T01:04:06;17.70;64.10
70807;DHT22;58882;52.170;5.386;2023-11-19T01:06:33;17.60;64.10
70807;DHT22;58882;52.170;5.386;2023-11-19T01:09:00;17.70;64.20
70807;DHT22;58882;52.170;5.386;2023-11-19T01:11:27;17.60;64.10
70807;DHT22;58882;52.170;5.386;2023-11-19T01:13:54;17.60;64.10
70807;DHT22;58882;52.170;5.386;2023-11-19T01:16:21;17.70;64.10
70807;DHT22;58882;52.170;5.386;2023-11-19T01:18:49;17.60;64.10
70807;DHT22;58882;52.170;5.386;2023-11-19T01:21:17;17.70;64.10
70807;DHT22;58882;52.170;5.386;2023-11-19T01:23:44;17.70;64.20
70807;DHT22;58882;52.170;5.386;2023-11-19T01:26:11;17.70;64.20
70807;DHT22;58882;52.170;5.386;2023-11-19T01:28:39;17.60;64.20
70807;DHT22;58882;52.170;5.386;2023-11-19T01:31:18;17.70;65.20
70807;DHT22;58882;52.170;5.386;2023-11-19T01:33:45;17.70;64.20
70807;DHT22;58882;52.170;5.386;2023-11-19T01:36:14;17.60;65.10
70807;DHT22;58882;52.170;5.386;2023-11-19T01:38:41;17.70;64.40
70807;DHT22;58882;52.170;5.386;2023-11-19T01:41:08;17.60;64.20
70807;DHT22;58882;52.170;5.386;2023-11-19T01:43:37;17.60;64.20
70807;DHT22;58882;52.170;5.386;2023-11-19T01:46:05;17.70;64.30
70807;DHT22;58882;52.170;5.386;2023-11-19T01:48:34;17.70;64.30
70807;DHT22;58882;52.170;5.386;2023-11-19T01:51:06;17.60;64.20
70807;DHT22;58882;52.170;5.386;2023-11-19T01:53:34;17.60;64.20
70807;DHT22;58882;52.170;5.386;2023-11-19T01:56:04;17.70;64.30
70807;DHT22;58882;52.170;5.386;2023-11-19T01:58:36;17.60;64.20
70807;DHT22;58882;52.170;5.386;2023-11-19T02:01:05;17.60;64.20
70807;DHT22;58882;52.170;5.386;2023-11-19T02:03:33;17.60;64.20
70807;DHT22;58882;52.170;5.386;2023-11-19T02:06:01;17.60;64.20
70807;DHT22;58882;52.170;5.386;2023-11-19T02:08:28;17.60;65.10
70807;DHT22;58882;52.170;5.386;2023-11-19T02:10:56;17.60;64.20
70807;DHT22;58882;52.170;5.386;2023-11-19T02:13:25;17.60;64.20
70807;DHT22;58882;52.170;5.386;2023-11-19T02:15:53;17.60;64.20
70807;DHT22;58882;52.170;5.386;2023-11-19T02:18:25;17.60;64.20
70807;DHT22;58882;52.170;5.386;2023-11-19T02:20:58;17.60;64.10
70807;DHT22;58882;52.170;5.386;2023-11-19T02:23:28;17.60;64.00
70807;DHT22;58882;52.170;5.386;2023-11-19T02:26:05;17.60;63.90
70807;DHT22;58882;52.170;5.386;2023-11-19T02:28:36;17.60;64.00
70807;DHT22;58882;52.170;5.386;2023-11-19T02:31:04;17.60;63.90
70807;DHT22;58882;52.170;5.386;2023-11-19T02:33:38;17.60;63.80
70807;DHT22;58882;52.170;5.386;2023-11-19T02:36:06;17.60;63.90
70807;DHT22;58882;52.170;5.386;2023-11-19T02:38:34;17.60;63.90
70807;DHT22;58882;52.170;5.386;2023-11-19T02:41:05;17.60;63.80
70807;DHT22;58882;52.170;5.386;2023-11-19T02:43:36;17.60;63.70
70807;DHT22;58882;52.170;5.386;2023-11-19T02:46:05;17.50;63.70
70807;DHT22;58882;52.170;5.386;2023-11-19T02:48:38;17.50;63.70
70807;DHT22;58882;52.170;5.386;2023-11-19T02:51:06;17.50;63.70
70807;DHT22;58882;52.170;5.386;2023-11-19T02:53:37;17.50;63.70
70807;DHT22;58882;52.170;5.386;2023-11-19T02:56:05;17.50;63.70
70807;DHT22;58882;52.170;5.386;2023-11-19T02:58:38;17.50;63.70
70807;DHT22;58882;52.170;5.386;2023-11-19T03:01:05;17.50;63.70
70807;DHT22;58882;52.170;5.386;2023-11-19T03:03:40;17.50;63.60
70807;DHT22;58882;52.170;5.386;2023-11-19T03:06:08;17.50;63.50
70807;DHT22;58882;52.170;5.386;2023-11-19T03:08:38;17.50;63.40
70807;DHT22;58882;52.170;5.386;2023-11-19T03:11:05;17.50;63.40
70807;DHT22;58882;52.170;5.386;2023-11-19T03:13:32;17.50;63.40
70807;DHT22;58882;52.170;5.386;2023-11-19T03:15:59;17.50;63.30
70807;DHT22;58882;52.170;5.386;2023-11-19T03:18:26;17.50;63.30
70807;DHT22;58882;52.170;5.386;2023-11-19T03:20:55;17.50;63.20
70807;DHT22;58882;52.170;5.386;2023-11-19T03:23:22;17.50;63.20
70807;DHT22;58882;52.170;5.386;2023-11-19T03:25:49;17.50;63.10
70807;DHT22;58882;52.170;5.386;2023-11-19T03:28:16;17.50;63.10
70807;DHT22;58882;52.170;5.386;2023-11-19T03:30:43;17.50;63.00
70807;DHT22;58882;52.170;5.386;2023-11-19T03:33:10;17.50;62.90
70807;DHT22;58882;52.170;5.386;2023-11-19T03:35:37;17.50;62.90
70807;DHT22;58882;52.170;5.386;2023-11-19T03:38:04;17.50;62.90
70807;DHT22;58882;52.170;5.386;2023-11-19T03:40:31;17.50;62.80
70807;DHT22;58882;52.170;5.386;2023-11-19T03:42:58;17.50;62.80
70807;DHT22;58882;52.170;5.386;2023-11-19T03:45:25;17.50;62.90
70807;DHT22;58882;52.170;5.386;2023-11-19T03:47:52;17.50;62.80
70807;DHT22;58882;52.170;5.386;2023-11-19T03:50:19;17.50;62.80
70807;DHT22;58882;52.170;5.386;2023-11-19T03:52:47;17.50;62.90
70807;DHT22;58882;52.170;5.386;2023-11-19T03:55:15;17.50;62.80
70807;DHT22;58882;52.170;5.386;2023-11-19T03:57:42;17.50;62.70
70807;DHT22;58882;52.170;5.386;2023-11-19T04:00:09;17.40;63.60
70807;DHT22;58882;52.170;5.386;2023-11-19T04:02:41;17.40;62.50
70807;DHT22;58882;52.170;5.386;2023-11-19T04:05:08;17.40;62.50
70807;DHT22;58882;52.170;5.386;2023-11-19T04:07:36;17.40;62.50
70807;DHT22;58882;52.170;5.386;2023-11-19T04:10:04;17.40;62.60
70807;DHT22;58882;52.170;5.386;2023-11-19T04:12:31;17.40;62.50
70807;DHT22;58882;52.170;5.386;2023-11-19T04:14:58;17.40;63.30
70807;DHT22;58882;52.170;5.386;2023-11-19T04:17:28;17.30;62.30
70807;DHT22;58882;52.170;5.386;2023-11-19T04:19:55;17.30;62.30
70807;DHT22;58882;52.170;5.386;2023-11-19T04:22:22;17.30;62.30
70807;DHT22;58882;52.170;5.386;2023-11-19T04:24:49;17.30;62.10
70807;DHT22;58882;52.170;5.386;2023-11-19T04:27:16;17.30;62.10
70807;DHT22;58882;52.170;5.386;2023-11-19T04:29:42;17.30;62.10
70807;DHT22;58882;52.170;5.386;2023-11-19T04:32:09;17.30;62.10
70807;DHT22;58882;52.170;5.386;2023-11-19T04:34:36;17.20;62.10
70807;DHT22;58882;52.170;5.386;2023-11-19T04:37:04;17.20;62.10
70807;DHT22;58882;52.170;5.386;2023-11-19T04:39:34;17.20;62.00
70807;DHT22;58882;52.170;5.386;2023-11-19T04:42:01;17.20;62.10
70807;DHT22;58882;52.170;5.386;2023-11-19T04:44:27;17.20;62.10
70807;DHT22;58882;52.170;5.386;2023-11-19T04:46:56;17.20;62.10
70807;DHT22;58882;52.170;5.386;2023-11-19T04:49:23;17.20;62.20
70807;DHT22;58882;52.170;5.386;2023-11-19T04:51:50;17.20;62.20
70807;DHT22;58882;52.170;5.386;2023-11-19T04:54:17;17.20;62.20
70807;DHT22;58882;52.170;5.386;2023-11-19T04:56:45;17.20;63.00
70807;DHT22;58882;52.170;5.386;2023-11-19T04:59:14;17.20;62.00
70807;DHT22;58882;52.170;5.386;2023-11-19T05:01:41;17.20;62.00
70807;DHT22;58882;52.170;5.386;2023-11-19T05:04:08;17.20;61.80
70807;DHT22;58882;52.170;5.386;2023-11-19T05:06:36;17.20;62.00
70807;DHT22;58882;52.170;5.386;2023-11-19T05:09:04;17.20;62.00
70807;DHT22;58882;52.170;5.386;2023-11-19T05:11:33;17.20;61.80
70807;DHT22;58882;52.170;5.386;2023-11-19T05:14:02;17.10;61.80
70807;DHT22;58882;52.170;5.386;2023-11-19T05:16:31;17.10;61.80
70807;DHT22;58882;52.170;5.386;2023-11-19T05:18:58;17.10;61.80
70807;DHT22;58882;52.170;5.386;2023-11-19T05:21:25;17.10;61.70
70807;DHT22;58882;52.170;5.386;2023-11-19T05:23:52;17.10;61.70
70807;DHT22;58882;52.170;5.386;2023-11-19T05:26:22;17.10;61.60
70807;DHT22;58882;52.170;5.386;2023-11-19T05:28:50;17.10;61.60
70807;DHT22;58882;52.170;5.386;2023-11-19T05:31:17;17.10;61.60
70807;DHT22;58882;52.170;5.386;2023-11-19T05:33:45;17.10;61.50
70807;DHT22;58882;52.170;5.386;2023-11-19T05:36:12;17.10;61.60
70807;DHT22;58882;52.170;5.386;2023-11-19T05:38:39;17.10;61.50
70807;DHT22;58882;52.170;5.386;2023-11-19T05:41:06;17.10;61.50
70807;DHT22;58882;52.170;5.386;2023-11-19T05:43:33;17.10;61.50
70807;DHT22;58882;52.170;5.386;2023-11-19T05:46:03;17.10;61.40
70807;DHT22;58882;52.170;5.386;2023-11-19T05:48:44;17.10;61.30
70807;DHT22;58882;52.170;5.386;2023-11-19T05:51:13;17.10;61.30
70807;DHT22;58882;52.170;5.386;2023-11-19T05:53:41;17.10;61.30
70807;DHT22;58882;52.170;5.386;2023-11-19T05:56:09;17.10;61.40
70807;DHT22;58882;52.170;5.386;2023-11-19T05:58:37;17.10;61.30
70807;DHT22;58882;52.170;5.386;2023-11-19T06:01:05;17.10;61.30
70807;DHT22;58882;52.170;5.386;2023-11-19T06:03:34;17.10;61.30
70807;DHT22;58882;52.170;5.386;2023-11-19T06:06:01;17.10;61.20
70807;DHT22;58882;52.170;5.386;2023-11-19T06:08:28;17.10;61.20
70807;DHT22;58882;52.170;5.386;2023-11-19T06:10:56;17.10;61.20
70807;DHT22;58882;52.170;5.386;2023-11-19T06:13:23;17.10;61.10
70807;DHT22;58882;52.170;5.386;2023-11-19T06:15:51;17.10;61.10
70807;DHT22;58882;52.170;5.386;2023-11-19T06:18:18;17.10;61.00
70807;DHT22;58882;52.170;5.386;2023-11-19T06:20:47;17.10;61.10
70807;DHT22;58882;52.170;5.386;2023-11-19T06:23:14;17.10;61.00
70807;DHT22;58882;52.170;5.386;2023-11-19T06:25:41;17.10;61.00
70807;DHT22;58882;52.170;5.386;2023-11-19T06:28:09;17.10;60.90
70807;DHT22;58882;52.170;5.386;2023-11-19T06:30:36;17.10;60.90
70807;DHT22;58882;52.170;5.386;2023-11-19T06:33:03;17.10;60.90
70807;DHT22;58882;52.170;5.386;2023-11-19T06:35:30;17.10;60.90
70807;DHT22;58882;52.170;5.386;2023-11-19T06:38:03;17.10;60.80
70807;DHT22;58882;52.170;5.386;2023-11-19T06:40:33;17.10;60.80
70807;DHT22;58882;52.170;5.386;2023-11-19T06:43:02;17.10;60.70
70807;DHT22;58882;52.170;5.386;2023-11-19T06:45:30;17.10;60.70
70807;DHT22;58882;52.170;5.386;2023-11-19T06:47:57;17.10;60.70
70807;DHT22;58882;52.170;5.386;2023-11-19T06:50:25;17.10;60.50
70807;DHT22;58882;52.170;5.386;2023-11-19T06:52:52;17.00;60.50
70807;DHT22;58882;52.170;5.386;2023-11-19T06:55:19;17.00;60.50
70807;DHT22;58882;52.170;5.386;2023-11-19T06:57:45;17.00;60.50
70807;DHT22;58882;52.170;5.386;2023-11-19T07:00:12;17.00;60.50
70807;DHT22;58882;52.170;5.386;2023-11-19T07:02:39;17.00;60.40
70807;DHT22;58882;52.170;5.386;2023-11-19T07:05:09;17.00;60.40
70807;DHT22;58882;52.170;5.386;2023-11-19T07:07:37;17.00;60.40
70807;DHT22;58882;52.170;5.386;2023-11-19T07:10:08;17.00;60.30
70807;DHT22;58882;52.170;5.386;2023-11-19T07:12:41;17.00;60.30
70807;DHT22;58882;52.170;5.386;2023-11-19T07:15:09;17.00;60.30
70807;DHT22;58882;52.170;5.386;2023-11-19T07:17:38;17.00;60.20
70807;DHT22;58882;52.170;5.386;2023-11-19T07:20:07;17.00;60.20
70807;DHT22;58882;52.170;5.386;2023-11-19T07:22:35;17.00;60.00
70807;DHT22;58882;52.170;5.386;2023-11-19T07:25:01;17.00;60.10
70807;DHT22;58882;52.170;5.386;2023-11-19T07:27:28;17.00;60.00
70807;DHT22;58882;52.170;5.386;2023-11-19T07:29:55;17.00;60.00
70807;DHT22;58882;52.170;5.386;2023-11-19T07:32:22;17.00;60.00
70807;DHT22;58882;52.170;5.386;2023-11-19T07:34:49;17.00;60.00
70807;DHT22;58882;52.170;5.386;2023-11-19T07:37:17;17.00;60.00
70807;DHT22;58882;52.170;5.386;2023-11-19T07:39:43;17.00;60.00
70807;DHT22;58882;52.170;5.386;2023-11-19T07:42:10;17.00;60.00
70807;DHT22;58882;52.170;5.386;2023-11-19T07:44:37;17.00;59.90
70807;DHT22;58882;52.170;5.386;2023-11-19T07:47:04;17.00;59.80
70807;DHT22;58882;52.170;5.386;2023-11-19T07:49:31;17.10;59.80
70807;DHT22;58882;52.170;5.386;2023-11-19T07:51:58;17.10;59.80
70807;DHT22;58882;52.170;5.386;2023-11-19T07:54:25;17.10;59.60
70807;DHT22;58882;52.170;5.386;2023-11-19T07:56:52;17.10;59.60
70807;DHT22;58882;52.170;5.386;2023-11-19T07:59:19;17.20;59.60
70807;DHT22;58882;52.170;5.386;2023-11-19T08:01:46;17.20;59.30
70807;DHT22;58882;52.170;5.386;2023-11-19T08:04:13;17.20;59.30
70807;DHT22;58882;52.170;5.386;2023-11-19T08:06:40;17.20;59.30
70807;DHT22;58882;52.170;5.386;2023-11-19T08:09:07;17.20;59.30
70807;DHT22;58882;52.170;5.386;2023-11-19T08:11:41;17.30;59.30
70807;DHT22;58882;52.170;5.386;2023-11-19T08:14:08;17.30;59.10
70807;DHT22;58882;52.170;5.386;2023-11-19T08:16:35;17.30;59.10
70807;DHT22;58882;52.170;5.386;2023-11-19T08:19:04;17.40;59.00
70807;DHT22;58882;52.170;5.386;2023-11-19T08:21:31;17.40;58.80
70807;DHT22;58882;52.170;5.386;2023-11-19T08:23:58;17.50;58.70
70807;DHT22;58882;52.170;5.386;2023-11-19T08:26:24;17.50;58.70
70807;DHT22;58882;52.170;5.386;2023-11-19T08:28:51;17.60;58.60
70807;DHT22;58882;52.170;5.386;2023-11-19T08:31:18;17.60;58.70
70807;DHT22;58882;52.170;5.386;2023-11-19T08:33:45;17.70;58.90
70807;DHT22;58882;52.170;5.386;2023-11-19T08:36:16;17.80;58.90
70807;DHT22;58882;52.170;5.386;2023-11-19T08:38:43;17.90;58.50
70807;DHT22;58882;52.170;5.386;2023-11-19T08:41:10;18.00;58.30
70807;DHT22;58882;52.170;5.386;2023-11-19T08:43:37;18.20;58.00
70807;DHT22;58882;52.170;5.386;2023-11-19T08:46:10;18.30;57.70
70807;DHT22;58882;52.170;5.386;2023-11-19T08:48:38;18.40;57.50
70807;DHT22;58882;52.170;5.386;2023-11-19T08:51:05;18.50;57.30
70807;DHT22;58882;52.170;5.386;2023-11-19T08:53:32;18.60;57.20
70807;DHT22;58882;52.170;5.386;2023-11-19T08:55:59;18.60;56.90
70807;DHT22;58882;52.170;5.386;2023-11-19T08:58:27;18.60;56.70
70807;DHT22;58882;52.170;5.386;2023-11-19T09:00:54;18.60;56.60
70807;DHT22;58882;52.170;5.386;2023-11-19T09:03:20;18.60;56.50
70807;DHT22;58882;52.170;5.386;2023-11-19T09:05:47;18.70;56.90
70807;DHT22;58882;52.170;5.386;2023-11-19T09:08:14;18.60;56.40
70807;DHT22;58882;52.170;5.386;2023-11-19T09:10:41;18.70;56.40
70807;DHT22;58882;52.170;5.386;2023-11-19T09:13:08;18.70;56.30
70807;DHT22;58882;52.170;5.386;2023-11-19T09:15:35;18.80;56.10
70807;DHT22;58882;52.170;5.386;2023-11-19T09:18:02;18.80;56.00
70807;DHT22;58882;52.170;5.386;2023-11-19T09:20:30;18.80;55.80
70807;DHT22;58882;52.170;5.386;2023-11-19T09:23:05;18.90;55.80
70807;DHT22;58882;52.170;5.386;2023-11-19T09:25:32;18.90;55.80
70807;DHT22;58882;52.170;5.386;2023-11-19T09:28:02;18.90;56.00
70807;DHT22;58882;52.170;5.386;2023-11-19T09:30:29;18.90;56.30
70807;DHT22;58882;52.170;5.386;2023-11-19T09:32:56;18.90;56.40
70807;DHT22;58882;52.170;5.386;2023-11-19T09:35:23;18.80;56.70
70807;DHT22;58882;52.170;5.386;2023-11-19T09:37:50;18.80;56.80
70807;DHT22;58882;52.170;5.386;2023-11-19T09:40:17;18.80;57.00
70807;DHT22;58882;52.170;5.386;2023-11-19T09:42:45;18.80;57.20
70807;DHT22;58882;52.170;5.386;2023-11-19T09:45:16;18.80;57.30
70807;DHT22;58882;52.170;5.386;2023-11-19T09:47:45;18.80;57.30
70807;DHT22;58882;52.170;5.386;2023-11-19T09:50:19;18.90;57.40
70807;DHT22;58882;52.170;5.386;2023-11-19T09:52:47;18.90;57.40
70807;DHT22;58882;52.170;5.386;2023-11-19T09:55:14;18.90;57.40
70807;DHT22;58882;52.170;5.386;2023-11-19T09:57:41;18.90;57.40
70807;DHT22;58882;52.170;5.386;2023-11-19T10:00:11;18.90;57.40
70807;DHT22;58882;52.170;5.386;2023-11-19T10:02:42;18.90;57.40
70807;DHT22;58882;52.170;5.386;2023-11-19T10:05:13;18.90;57.50
70807;DHT22;58882;52.170;5.386;2023-11-19T10:07:41;18.90;57.60
70807;DHT22;58882;52.170;5.386;2023-11-19T10:10:09;19.00;57.60
70807;DHT22;58882;52.170;5.386;2023-11-19T10:12:40;19.00;57.50
70807;DHT22;58882;52.170;5.386;2023-11-19T10:15:24;19.00;57.50
70807;DHT22;58882;52.170;5.386;2023-11-19T10:17:57;19.00;57.50
70807;DHT22;58882;52.170;5.386;2023-11-19T10:20:24;19.00;57.50
70807;DHT22;58882;52.170;5.386;2023-11-19T10:22:55;19.10;57.60
70807;DHT22;58882;52.170;5.386;2023-11-19T10:25:27;19.10;57.60
70807;DHT22;58882;52.170;5.386;2023-11-19T10:27:55;19.10;57.50
70807;DHT22;58882;52.170;5.386;2023-11-19T10:30:27;19.20;57.60
70807;DHT22;58882;52.170;5.386;2023-11-19T10:35:54;19.30;57.10
70807;DHT22;58882;52.170;5.386;2023-11-19T10:38:28;19.30;57.10
70807;DHT22;58882;52.170;5.386;2023-11-19T10:40:56;19.30;57.00
70807;DHT22;58882;52.170;5.386;2023-11-19T10:43:23;19.40;57.10
70807;DHT22;58882;52.170;5.386;2023-11-19T10:45:50;19.40;57.00
70807;DHT22;58882;52.170;5.386;2023-11-19T10:48:18;19.40;57.00
70807;DHT22;58882;52.170;5.386;2023-11-19T10:50:46;19.40;56.50
70807;DHT22;58882;52.170;5.386;2023-11-19T10:53:17;19.50;56.60
70807;DHT22;58882;52.170;5.386;2023-11-19T10:55:47;19.50;56.70
70807;DHT22;58882;52.170;5.386;2023-11-19T10:58:16;19.50;56.70
70807;DHT22;58882;52.170;5.386;2023-11-19T11:00:55;19.60;56.70
70807;DHT22;58882;52.170;5.386;2023-11-19T11:03:25;19.60;56.60
70807;DHT22;58882;52.170;5.386;2023-11-19T11:05:53;19.70;56.50
70807;DHT22;58882;52.170;5.386;2023-11-19T11:08:20;19.70;56.30
70807;DHT22;58882;52.170;5.386;2023-11-19T11:10:55;19.70;56.20
70807;DHT22;58882;52.170;5.386;2023-11-19T11:13:24;19.60;56.00
70807;DHT22;58882;52.170;5.386;2023-11-19T11:15:52;19.70;56.20
70807;DHT22;58882;52.170;5.386;2023-11-19T11:18:21;19.60;56.10
70807;DHT22;58882;52.170;5.386;2023-11-19T11:20:49;19.70;56.00
70807;DHT22;58882;52.170;5.386;2023-11-19T11:29:10;19.70;56.10
70807;DHT22;58882;52.170;5.386;2023-11-19T11:32:02;19.60;56.10
70807;DHT22;58882;52.170;5.386;2023-11-19T11:37:37;19.60;56.10
70807;DHT22;58882;52.170;5.386;2023-11-19T11:40:06;19.60;56.10
70807;DHT22;58882;52.170;5.386;2023-11-19T11:42:37;19.60;56.20
70807;DHT22;58882;52.170;5.386;2023-11-19T11:50:16;19.50;56.20
70807;DHT22;58882;52.170;5.386;2023-11-19T11:55:51;19.50;56.20
70807;DHT22;58882;52.170;5.386;2023-11-19T11:58:19;19.50;56.20
70807;DHT22;58882;52.170;5.386;2023-11-19T12:00:48;19.50;57.20
70807;DHT22;58882;52.170;5.386;2023-11-19T12:03:16;19.40;56.20
70807;DHT22;58882;52.170;5.386;2023-11-19T12:05:46;19.40;56.30
70807;DHT22;58882;52.170;5.386;2023-11-19T12:08:15;19.40;56.40
70807;DHT22;58882;52.170;5.386;2023-11-19T12:10:49;19.40;56.40
70807;DHT22;58882;52.170;5.386;2023-11-19T12:13:17;19.40;56.40
70807;DHT22;58882;52.170;5.386;2023-11-19T12:18:28;19.40;56.50
70807;DHT22;58882;52.170;5.386;2023-11-19T12:20:56;19.30;56.40
70807;DHT22;58882;52.170;5.386;2023-11-19T12:23:23;19.30;56.60
70807;DHT22;58882;52.170;5.386;2023-11-19T12:25:50;19.30;56.70
70807;DHT22;58882;52.170;5.386;2023-11-19T12:28:17;19.40;56.70
70807;DHT22;58882;52.170;5.386;2023-11-19T12:30:45;19.40;56.70
70807;DHT22;58882;52.170;5.386;2023-11-19T12:33:13;19.40;56.60
70807;DHT22;58882;52.170;5.386;2023-11-19T12:38:07;19.40;56.40
70807;DHT22;58882;52.170;5.386;2023-11-19T12:40:34;19.40;56.40
70807;DHT22;58882;52.170;5.386;2023-11-19T12:43:01;19.40;56.50
70807;DHT22;58882;52.170;5.386;2023-11-19T12:45:37;19.30;56.50
70807;DHT22;58882;52.170;5.386;2023-11-19T12:48:06;19.30;56.60
70807;DHT22;58882;52.170;5.386;2023-11-19T12:50:56;19.30;57.30
70807;DHT22;58882;52.170;5.386;2023-11-19T12:53:26;19.20;58.10
70807;DHT22;58882;52.170;5.386;2023-11-19T12:55:53;19.10;58.70
70807;DHT22;58882;52.170;5.386;2023-11-19T13:01:06;19.00;60.30
70807;DHT22;58882;52.170;5.386;2023-11-19T13:03:35;18.90;60.90
70807;DHT22;58882;52.170;5.386;2023-11-19T13:06:03;18.90;61.30
70807;DHT22;58882;52.170;5.386;2023-11-19T13:08:41;18.80;61.70
70807;DHT22;58882;52.170;5.386;2023-11-19T13:11:09;18.80;62.30
70807;DHT22;58882;52.170;5.386;2023-11-19T13:13:58;18.70;62.50
70807;DHT22;58882;52.170;5.386;2023-11-19T13:16:31;18.70;62.80
70807;DHT22;58882;52.170;5.386;2023-11-19T13:18:58;18.70;63.00
70807;DHT22;58882;52.170;5.386;2023-11-19T13:21:26;18.70;63.20
70807;DHT22;58882;52.170;5.386;2023-11-19T13:23:53;18.60;63.40
70807;DHT22;58882;52.170;5.386;2023-11-19T13:26:20;18.60;63.40
70807;DHT22;58882;52.170;5.386;2023-11-19T13:28:47;18.60;63.80
70807;DHT22;58882;52.170;5.386;2023-11-19T13:31:14;18.60;64.00
70807;DHT22;58882;52.170;5.386;2023-11-19T13:33:41;18.60;64.30
70807;DHT22;58882;52.170;5.386;2023-11-19T13:36:09;18.50;64.50
70807;DHT22;58882;52.170;5.386;2023-11-19T13:38:39;18.50;64.60
70807;DHT22;58882;52.170;5.386;2023-11-19T13:41:11;18.50;64.80
70807;DHT22;58882;52.170;5.386;2023-11-19T13:43:39;18.50;65.00
70807;DHT22;58882;52.170;5.386;2023-11-19T13:46:06;18.50;65.20
70807;DHT22;58882;52.170;5.386;2023-11-19T13:48:33;18.50;65.30
70807;DHT22;58882;52.170;5.386;2023-11-19T13:51:00;18.50;65.50
70807;DHT22;58882;52.170;5.386;2023-11-19T13:53:27;18.50;65.70
70807;DHT22;58882;52.170;5.386;2023-11-19T13:55:54;18.50;65.80
70807;DHT22;58882;52.170;5.386;2023-11-19T13:58:20;18.50;65.90
70807;DHT22;58882;52.170;5.386;2023-11-19T14:00:48;18.50;66.00
70807;DHT22;58882;52.170;5.386;2023-11-19T14:03:15;18.50;66.20
70807;DHT22;58882;52.170;5.386;2023-11-19T14:05:42;18.50;66.20
70807;DHT22;58882;52.170;5.386;2023-11-19T14:08:10;18.50;66.20
70807;DHT22;58882;52.170;5.386;2023-11-19T14:10:51;18.50;66.30
70807;DHT22;58882;52.170;5.386;2023-11-19T14:13:19;18.50;66.30
70807;DHT22;58882;52.170;5.386;2023-11-19T14:15:45;18.40;66.40
70807;DHT22;58882;52.170;5.386;2023-11-19T14:18:16;18.40;66.40
70807;DHT22;58882;52.170;5.386;2023-11-19T14:20:43;18.40;66.50
70807;DHT22;58882;52.170;5.386;2023-11-19T14:23:11;18.40;66.50
70807;DHT22;58882;52.170;5.386;2023-11-19T14:25:37;18.40;66.60
70807;DHT22;58882;52.170;5.386;2023-11-19T14:28:04;18.40;66.60
70807;DHT22;58882;52.170;5.386;2023-11-19T14:30:32;18.40;66.70
70807;DHT22;58882;52.170;5.386;2023-11-19T14:33:00;18.40;66.60
70807;DHT22;58882;52.170;5.386;2023-11-19T14:35:27;18.40;66.40
70807;DHT22;58882;52.170;5.386;2023-11-19T14:37:56;18.40;66.40
70807;DHT22;58882;52.170;5.386;2023-11-19T14:40:23;18.40;66.30
70807;DHT22;58882;52.170;5.386;2023-11-19T14:43:08;18.40;66.20
70807;DHT22;58882;52.170;5.386;2023-11-19T14:45:38;18.40;66.20
70807;DHT22;58882;52.170;5.386;2023-11-19T14:48:15;18.40;66.30
70807;DHT22;58882;52.170;5.386;2023-11-19T14:50:42;18.40;66.20
70807;DHT22;58882;52.170;5.386;2023-11-19T14:53:09;18.40;66.20
70807;DHT22;58882;52.170;5.386;2023-11-19T14:55:36;18.30;66.20
70807;DHT22;58882;52.170;5.386;2023-11-19T14:58:03;18.40;66.40
70807;DHT22;58882;52.170;5.386;2023-11-19T15:00:36;18.40;66.40
70807;DHT22;58882;52.170;5.386;2023-11-19T15:03:03;18.30;66.30
70807;DHT22;58882;52.170;5.386;2023-11-19T15:05:30;18.30;66.30
70807;DHT22;58882;52.170;5.386;2023-11-19T15:07:57;18.30;66.20
70807;DHT22;58882;52.170;5.386;2023-11-19T15:10:24;18.30;66.10
70807;DHT22;58882;52.170;5.386;2023-11-19T15:12:52;18.30;65.90
70807;DHT22;58882;52.170;5.386;2023-11-19T15:15:20;18.30;65.80
70807;DHT22;58882;52.170;5.386;2023-11-19T15:17:50;18.30;65.70
70807;DHT22;58882;52.170;5.386;2023-11-19T15:20:17;18.30;65.70
70807;DHT22;58882;52.170;5.386;2023-11-19T15:22:46;18.30;65.70
70807;DHT22;58882;52.170;5.386;2023-11-19T15:25:13;18.30;65.70
70807;DHT22;58882;52.170;5.386;2023-11-19T15:27:40;18.30;65.60
70807;DHT22;58882;52.170;5.386;2023-11-19T15:30:07;18.30;66.60
70807;DHT22;58882;52.170;5.386;2023-11-19T15:32:37;18.30;65.50
70807;DHT22;58882;52.170;5.386;2023-11-19T15:35:04;18.30;65.30
70807;DHT22;58882;52.170;5.386;2023-11-19T15:37:35;18.20;65.30
70807;DHT22;58882;52.170;5.386;2023-11-19T15:40:03;18.30;65.10
70807;DHT22;58882;52.170;5.386;2023-11-19T15:42:32;18.20;65.00
70807;DHT22;58882;52.170;5.386;2023-11-19T15:44:59;18.20;65.00
70807;DHT22;58882;52.170;5.386;2023-11-19T15:47:26;18.20;64.60
70807;DHT22;58882;52.170;5.386;2023-11-19T15:49:53;18.20;64.60
70807;DHT22;58882;52.170;5.386;2023-11-19T15:52:20;18.20;64.60
70807;DHT22;58882;52.170;5.386;2023-11-19T15:54:46;18.20;64.60
70807;DHT22;58882;52.170;5.386;2023-11-19T15:57:14;18.20;64.60
70807;DHT22;58882;52.170;5.386;2023-11-19T15:59:41;18.20;64.40
70807;DHT22;58882;52.170;5.386;2023-11-19T16:02:08;18.20;64.30
70807;DHT22;58882;52.170;5.386;2023-11-19T16:04:35;18.20;64.30